Time;durP1;ratioP1;P1;durP2;ratioP2;P2;SDS_P1;SDS_P2;PMS_P1;PMS_P2;Temp;Humidity;BMP_temperature;BMP_pressure;BME280_temperature;BME280_humidity;BME280_pressure;Samples;Min_cycle;Max_cycle;Signal;HPM_P1;HPM_P2
2021/06/08 00:00:34;;;;;;;17.60;15.73;;;;;;;17.99;66.84;95202.06;5067691;28;20438;-68
2021/06/08 00:03:02;;;;;;;16.07;14.50;;;;;;;17.88;66.38;95195.38;5050489;28;21002;-68
2021/06/08 00:05:30;;;;;;;18.13;14.17;;;;;;;17.74;66.58;95202.50;5057168;28;20445;-69
2021/06/08 00:07:58;;;;;;;16.70;14.10;;;;;;;17.83;66.11;95187.47;5065106;28;20534;-69
2021/06/08 00:10:27;;;;;;;15.30;13.20;;;;;;;17.99;65.80;95191.44;5051277;28;20713;-71
2021/06/08 00:12:54;;;;;;;16.33;14.47;;;;;;;17.97;65.32;95189.06;5049983;28;20474;-69
2021/06/08 00:15:21;;;;;;;19.67;14.43;;;;;;;17.85;65.68;95182.69;5068590;28;20434;-70
2021/06/08 00:17:49;;;;;;;15.97;13.90;;;;;;;17.84;65.65;95167.88;5070601;28;20495;-69
2021/06/08 00:20:17;;;;;;;16.97;13.33;;;;;;;17.90;65.62;95180.72;5069522;28;20811;-71
2021/06/08 00:22:45;;;;;;;18.47;13.80;;;;;;;17.79;66.10;95168.72;5060126;28;20453;-71
2021/06/08 00:25:12;;;;;;;16.83;14.30;;;;;;;17.84;65.73;95167.88;5049446;28;20442;-71
2021/06/08 00:27:39;;;;;;;16.03;14.33;;;;;;;17.28;67.92;95177.84;5049320;28;20545;-73
2021/06/08 00:30:07;;;;;;;20.13;15.57;;;;;;;17.30;67.78;95165.09;5048927;28;20470;-70
2021/06/08 00:32:34;;;;;;;16.83;15.13;;;;;;;17.43;68.09;95182.88;5063982;28;20577;-71
2021/06/08 00:35:01;;;;;;;16.53;13.87;;;;;;;17.68;67.45;95170.00;5062195;28;20480;-70
2021/06/08 00:37:28;;;;;;;14.80;13.40;;;;;;;17.72;66.50;95175.50;5069298;28;20452;-70
2021/06/08 00:39:55;;;;;;;16.60;14.53;;;;;;;17.75;66.30;95170.44;5068592;28;20963;-69
2021/06/08 00:42:30;;;;;;;16.83;14.63;;;;;;;17.76;66.40;95165.88;5050250;28;20868;-70
2021/06/08 00:44:57;;;;;;;17.53;14.40;;;;;;;17.90;65.55;95156.09;5062889;28;20454;-69
2021/06/08 00:47:25;;;;;;;16.80;15.10;;;;;;;17.80;65.68;95162.38;5072772;28;20437;-69
2021/06/08 00:49:52;;;;;;;17.20;14.67;;;;;;;17.74;66.23;95152.13;5074137;28;20832;-69
2021/06/08 00:52:19;;;;;;;15.07;13.37;;;;;;;17.77;65.98;95151.56;5073087;28;20481;-69
2021/06/08 00:54:47;;;;;;;14.97;13.30;;;;;;;17.68;65.88;95148.03;5073050;28;20450;-69
2021/06/08 00:57:14;;;;;;;16.43;14.57;;;;;;;17.84;65.54;95151.97;5055836;28;20442;-69
2021/06/08 00:59:41;;;;;;;14.73;13.30;;;;;;;17.69;65.42;95144.28;5062479;28;20457;-69
2021/06/08 01:02:08;;;;;;;18.90;14.23;;;;;;;17.64;65.80;95152.34;5057373;28;20972;-69
2021/06/08 01:04:35;;;;;;;17.23;14.93;;;;;;;17.74;65.66;95141.53;5052568;28;20447;-71
2021/06/08 01:07:02;;;;;;;25.57;16.20;;;;;;;17.79;65.28;95149.41;5053204;28;20439;-69
2021/06/08 01:09:29;;;;;;;18.40;15.33;;;;;;;17.52;66.46;95138.75;5052326;28;20941;-69
2021/06/08 01:11:56;;;;;;;17.60;15.43;;;;;;;17.59;65.81;95144.50;5052744;28;20458;-69
2021/06/08 01:14:23;;;;;;;17.70;15.90;;;;;;;17.66;66.63;95150.19;5063547;28;20569;-69
2021/06/08 01:16:50;;;;;;;18.17;16.43;;;;;;;17.68;65.93;95150.69;5070158;28;21381;-69
2021/06/08 01:19:17;;;;;;;19.63;17.50;;;;;;;17.76;66.08;95144.69;5051911;28;20451;-70
2021/06/08 01:21:44;;;;;;;21.57;17.37;;;;;;;17.75;66.15;95143.13;5066171;28;20441;-69
2021/06/08 01:24:12;;;;;;;19.73;17.63;;;;;;;17.81;66.00;95142.72;5052628;28;20447;-68
2021/06/08 01:26:39;;;;;;;19.77;17.73;;;;;;;17.75;66.19;95138.63;5066442;28;20465;-68
2021/06/08 01:29:08;;;;;;;23.10;17.90;;;;;;;17.79;65.96;95141.47;5052137;28;20435;-70
2021/06/08 01:31:37;;;;;;;20.90;16.60;;;;;;;17.51;66.02;95131.91;5064571;28;20474;-69
2021/06/08 01:34:05;;;;;;;17.83;16.00;;;;;;;17.46;66.56;95145.22;5052820;28;20478;-69
2021/06/08 01:36:39;;;;;;;19.53;16.13;;;;;;;17.43;66.37;95151.88;5052465;28;20995;-69
2021/06/08 01:39:07;;;;;;;17.83;15.93;;;;;;;17.56;66.10;95140.53;5071965;28;20449;-70
2021/06/08 01:41:34;;;;;;;16.00;14.40;;;;;;;17.52;66.00;95139.56;5058179;28;20994;-70
2021/06/08 01:44:03;;;;;;;15.13;13.50;;;;;;;17.43;65.14;95124.59;5058271;28;20441;-71
2021/06/08 01:46:30;;;;;;;15.27;12.80;;;;;;;17.33;65.46;95138.03;5072148;28;20446;-71
2021/06/08 01:48:57;;;;;;;15.03;13.63;;;;;;;17.17;66.37;95127.69;5071510;28;20445;-70
2021/06/08 01:52:01;;;;;;;17.57;15.10;;;;;;;17.23;66.08;95144.25;5072583;28;20493;-71
2021/06/08 01:54:37;;;;;;;18.83;14.77;;;;;;;17.36;65.86;95145.38;5071192;28;20489;-71
2021/06/08 01:57:11;;;;;;;17.30;14.77;;;;;;;17.39;65.51;95134.22;5070710;28;20511;-70
2021/06/08 01:59:54;;;;;;;15.13;13.63;;;;;;;17.19;66.47;95140.63;5060077;28;20503;-69
2021/06/08 02:02:35;;;;;;;16.23;14.53;;;;;;;17.27;66.52;95149.78;5054481;28;20963;-69
2021/06/08 02:05:08;;;;;;;20.27;16.33;;;;;;;17.39;66.13;95150.13;5058855;28;20983;-69
2021/06/08 02:08:12;;;;;;;19.43;15.90;;;;;;;17.31;66.46;95142.81;5051879;28;20443;-69
2021/06/08 02:10:56;;;;;;;24.00;17.80;;;;;;;16.89;68.60;95155.16;5059731;28;20437;-69
2021/06/08 02:13:29;;;;;;;23.37;18.80;;;;;;;16.91;68.32;95145.06;5069418;28;20849;-69
2021/06/08 02:16:03;;;;;;;28.33;21.50;;;;;;;16.15;72.43;95152.44;5051584;28;20441;-69
2021/06/08 02:18:33;;;;;;;23.33;19.03;;;;;;;16.74;70.89;95150.06;5067549;28;20434;-70
2021/06/08 02:21:03;;;;;;;28.97;21.43;;;;;;;16.47;71.81;95138.53;5071337;28;20542;-70
2021/06/08 02:23:31;;;;;;;28.70;22.07;;;;;;;16.50;71.23;95149.34;5056830;28;20458;-70
2021/06/08 02:25:59;;;;;;;33.07;21.20;;;;;;;16.66;70.70;95142.00;5063425;28;20538;-68
2021/06/08 02:28:30;;;;;;;28.30;21.40;;;;;;;17.00;69.84;95148.63;5064913;28;20441;-69
2021/06/08 02:31:02;;;;;;;30.47;22.30;;;;;;;17.07;68.49;95159.63;5051358;28;20481;-70
2021/06/08 02:33:30;;;;;;;34.17;22.27;;;;;;;17.08;68.84;95155.91;5051419;28;20493;-69
2021/06/08 02:35:59;;;;;;;32.33;23.30;;;;;;;17.09;68.51;95157.47;5052057;28;20439;-69
2021/06/08 02:38:27;;;;;;;30.10;21.83;;;;;;;17.16;68.59;95163.19;5064445;28;20456;-69
2021/06/08 02:40:54;;;;;;;28.97;21.17;;;;;;;17.29;68.36;95166.16;5059683;28;20446;-69
2021/06/08 02:43:23;;;;;;;28.83;22.40;;;;;;;16.43;70.73;95159.47;5070588;28;20438;-70
2021/06/08 02:45:51;;;;;;;34.20;22.70;;;;;;;16.85;69.49;95156.78;5064079;28;20439;-70
2021/06/08 02:48:20;;;;;;;31.20;21.30;;;;;;;17.22;67.80;95156.72;5063984;28;20438;-69
2021/06/08 02:50:48;;;;;;;27.97;20.37;;;;;;;17.34;67.75;95156.25;5071226;28;20435;-71
2021/06/08 02:53:16;;;;;;;24.17;20.23;;;;;;;17.47;67.57;95160.84;5070918;28;20477;-69
2021/06/08 02:55:44;;;;;;;25.57;19.47;;;;;;;17.52;66.36;95154.66;5052421;28;20431;-71
2021/06/08 02:58:12;;;;;;;24.20;19.93;;;;;;;17.44;66.68;95160.63;5061158;28;20460;-70
2021/06/08 03:00:41;;;;;;;26.27;20.80;;;;;;;17.56;66.11;95160.94;5056598;28;20442;-74
2021/06/08 03:03:12;;;;;;;26.23;21.63;;;;;;;17.36;66.28;95166.56;5060971;28;20451;-69
2021/06/08 03:05:45;;;;;;;27.63;20.47;;;;;;;17.34;66.36;95174.00;5057923;28;20462;-69
2021/06/08 03:08:44;;;;;;;24.47;20.20;;;;;;;17.13;67.59;95152.41;5051753;28;20529;-68
2021/06/08 03:11:16;;;;;;;25.37;19.60;;;;;;;17.19;67.38;95167.91;5056989;28;20444;-70
2021/06/08 03:13:43;;;;;;;29.07;21.13;;;;;;;17.21;67.37;95168.41;5064371;28;20474;-71
2021/06/08 03:16:10;;;;;;;25.40;20.87;;;;;;;16.79;69.06;95163.22;5062384;28;20450;-70
2021/06/08 03:18:40;;;;;;;26.40;20.90;;;;;;;16.82;68.88;95177.75;5055805;28;20450;-69
2021/06/08 03:21:12;;;;;;;25.47;20.07;;;;;;;17.14;67.17;95165.34;5070726;28;20450;-69
2021/06/08 03:23:48;;;;;;;20.97;18.77;;;;;;;17.35;66.65;95175.59;5066617;28;20533;-69
2021/06/08 03:26:16;;;;;;;19.93;17.50;;;;;;;17.41;66.07;95169.16;5050263;28;20550;-69
2021/06/08 03:28:45;;;;;;;25.00;17.20;;;;;;;17.24;66.05;95165.16;5063958;28;20458;-69
2021/06/08 03:31:13;;;;;;;20.30;17.00;;;;;;;17.40;65.73;95171.00;5059614;28;20472;-69
2021/06/08 03:33:42;;;;;;;20.83;17.40;;;;;;;17.44;65.17;95176.50;5055256;28;20570;-69
2021/06/08 03:36:28;;;;;;;18.80;16.80;;;;;;;17.05;66.00;95177.66;5026676;28;20536;-68
2021/06/08 03:38:57;;;;;;;20.80;17.50;;;;;;;17.08;66.02;95166.47;5056260;28;20840;-69
2021/06/08 03:41:25;;;;;;;19.33;17.33;;;;;;;17.07;66.04;95178.16;5057718;28;20443;-69
2021/06/08 03:43:52;;;;;;;21.50;17.00;;;;;;;17.34;65.82;95184.59;5068089;28;20442;-68
2021/06/08 03:46:23;;;;;;;19.53;17.43;;;;;;;17.54;65.26;95184.28;5070252;28;20543;-68
2021/06/08 03:48:52;;;;;;;21.53;19.23;;;;;;;17.55;65.60;95185.88;5055432;28;20484;-69
2021/06/08 03:51:20;;;;;;;21.53;18.63;;;;;;;17.59;65.57;95184.22;5070360;28;20859;-70
2021/06/08 03:53:47;;;;;;;19.27;17.27;;;;;;;17.55;66.87;95191.19;5067296;28;20865;-71
2021/06/08 03:56:16;;;;;;;23.40;19.10;;;;;;;17.62;65.81;95194.25;5050350;28;20435;-72
2021/06/08 03:58:44;;;;;;;21.00;18.60;;;;;;;17.58;66.52;95191.38;5060034;28;20474;-70
2021/06/08 04:01:11;;;;;;;18.73;16.83;;;;;;;17.56;65.37;95195.41;5068868;28;20433;-71
2021/06/08 04:03:39;;;;;;;20.63;18.27;;;;;;;17.70;65.21;95198.88;5068828;28;21018;-70
2021/06/08 04:06:09;;;;;;;21.70;18.47;;;;;;;17.12;65.81;95199.25;5066207;28;20529;-70
2021/06/08 04:08:36;;;;;;;26.87;18.83;;;;;;;17.06;66.51;95203.06;5068875;28;20430;-70
2021/06/08 04:11:03;;;;;;;22.07;18.50;;;;;;;16.88;67.27;95213.66;5068763;28;20987;-70
2021/06/08 04:13:30;;;;;;;17.93;16.13;;;;;;;17.14;65.74;95201.63;5064568;28;21467;-71
2021/06/08 04:15:57;;;;;;;19.20;17.20;;;;;;;17.18;66.09;95208.72;5060813;28;20561;-68
2021/06/08 04:18:30;;;;;;;20.73;18.53;;;;;;;17.16;67.04;95205.56;5066168;28;20442;-69
2021/06/08 04:20:59;;;;;;;24.77;19.20;;;;;;;17.18;66.15;95205.25;5069145;28;20438;-69
2021/06/08 04:23:27;;;;;;;20.10;18.00;;;;;;;17.16;66.35;95205.56;5074370;28;20438;-69
2021/06/08 04:25:55;;;;;;;20.53;18.33;;;;;;;17.13;66.63;95197.41;5074972;28;20892;-69
2021/06/08 04:28:24;;;;;;;19.40;17.40;;;;;;;17.30;66.92;95210.13;5059937;28;20446;-70
2021/06/08 04:30:52;;;;;;;21.30;17.90;;;;;;;17.45;65.90;95207.22;5069670;28;20481;-70
2021/06/08 04:33:27;;;;;;;20.20;18.00;;;;;;;17.57;65.72;95210.22;5073490;28;21040;-72
2021/06/08 04:35:54;;;;;;;21.90;19.37;;;;;;;17.63;66.52;95209.06;5071383;28;20450;-69
2021/06/08 04:38:22;;;;;;;22.90;18.73;;;;;;;17.70;67.17;95204.19;5073216;28;20458;-71
2021/06/08 04:40:52;;;;;;;20.77;17.57;;;;;;;17.86;66.47;95203.59;5061281;28;21454;-69
2021/06/08 04:43:24;;;;;;;19.97;17.97;;;;;;;17.91;66.58;95200.06;5058844;28;20470;-70
2021/06/08 04:45:52;;;;;;;20.47;18.33;;;;;;;18.08;66.03;95211.66;5066252;28;20449;-73
2021/06/08 04:48:23;;;;;;;21.70;18.93;;;;;;;17.85;66.73;95206.53;5066591;28;20438;-69
2021/06/08 04:50:51;;;;;;;25.30;20.87;;;;;;;17.94;67.20;95218.03;5060092;28;20434;-69
2021/06/08 04:53:18;;;;;;;26.57;21.43;;;;;;;18.02;66.16;95209.41;5073366;28;20472;-72
2021/06/08 04:55:45;;;;;;;42.67;37.00;;;;;;;17.83;66.75;95214.00;5058844;28;20453;-70
2021/06/08 04:58:12;;;;;;;67.80;60.37;;;;;;;17.90;65.94;95206.47;5073072;28;20438;-67
2021/06/08 05:01:19;;;;;;;25.60;20.40;;;;;;;18.19;64.63;95209.63;5056340;28;20431;-67
2021/06/08 05:03:51;;;;;;;25.40;22.80;;;;;;;17.48;66.90;95217.28;5053751;28;20796;-69
2021/06/08 05:06:26;;;;;;;25.80;21.97;;;;;;;17.79;66.23;95213.78;5058946;28;20443;-69
2021/06/08 05:08:57;;;;;;;28.47;21.70;;;;;;;17.81;66.81;95205.56;5060679;28;21154;-70
2021/06/08 05:11:36;;;;;;;26.83;21.80;;;;;;;18.16;65.40;95207.53;5058811;28;20447;-67
2021/06/08 05:14:07;;;;;;;26.67;21.70;;;;;;;18.07;65.11;95214.63;5073158;28;20469;-68
2021/06/08 05:16:39;;;;;;;27.30;23.47;;;;;;;18.10;66.01;95219.34;5058789;28;20787;-70
2021/06/08 05:19:08;;;;;;;25.33;22.70;;;;;;;18.19;65.87;95230.84;5072924;28;21332;-69
2021/06/08 05:21:37;;;;;;;29.00;24.77;;;;;;;18.15;66.63;95228.00;5059240;28;20800;-70
2021/06/08 05:24:06;;;;;;;39.70;29.17;;;;;;;18.15;66.62;95208.63;5062820;28;20446;-71
2021/06/08 05:26:33;;;;;;;34.47;30.73;;;;;;;18.19;66.49;95217.59;5072412;28;20438;-72
2021/06/08 05:29:01;;;;;;;53.60;47.57;;;;;;;18.14;64.37;95228.28;5067646;28;20451;-74
2021/06/08 05:31:29;;;;;;;77.30;69.03;;;;;;;18.16;64.49;95223.47;5057065;28;21004;-68
2021/06/08 05:33:57;;;;;;;31.10;27.70;;;;;;;18.23;63.50;95218.53;5061079;28;20572;-72
2021/06/08 05:36:36;;;;;;;34.37;27.70;;;;;;;18.32;64.82;95226.63;5071190;28;20472;-72
2021/06/08 05:39:07;;;;;;;33.17;28.47;;;;;;;18.39;63.90;95214.53;5058276;28;20995;-69
2021/06/08 05:41:34;;;;;;;33.93;27.53;;;;;;;18.54;64.15;95224.09;5071531;28;20565;-72
2021/06/08 05:44:02;;;;;;;36.33;28.53;;;;;;;18.48;64.92;95220.75;5056622;28;20437;-74
2021/06/08 05:46:37;;;;;;;37.10;31.07;;;;;;;18.77;64.38;95215.88;5071895;28;20449;-70
2021/06/08 05:49:08;;;;;;;34.03;29.77;;;;;;;18.84;64.92;95218.91;5058074;28;20445;-72
2021/06/08 05:51:38;;;;;;;37.37;30.53;;;;;;;18.81;64.88;95213.41;5060481;28;20818;-72
2021/06/08 05:54:09;;;;;;;34.97;28.67;;;;;;;18.85;64.69;95225.78;5071393;28;20473;-75
2021/06/08 05:56:38;;;;;;;37.93;29.83;;;;;;;18.93;64.99;95219.78;5072633;28;20445;-69
2021/06/08 05:59:06;;;;;;;37.00;30.77;;;;;;;18.94;64.07;95221.34;5057439;28;20533;-74
2021/06/08 06:01:35;;;;;;;34.97;30.90;;;;;;;18.86;64.45;95222.06;5071878;28;20528;-71
2021/06/08 06:04:03;;;;;;;35.77;28.20;;;;;;;18.85;64.42;95215.16;5071648;28;20493;-75
2021/06/08 06:06:30;;;;;;;35.67;29.50;;;;;;;18.64;65.36;95219.34;5055895;28;20431;-69
2021/06/08 06:08:57;;;;;;;36.77;30.70;;;;;;;18.79;65.36;95205.75;5066702;28;20455;-72
2021/06/08 06:11:27;;;;;;;35.80;30.80;;;;;;;18.95;64.45;95222.91;5051753;28;20529;-70
2021/06/08 06:14:06;;;;;;;34.10;30.07;;;;;;;18.98;63.09;95222.31;5064602;28;20524;-71
2021/06/08 06:16:37;;;;;;;38.63;30.10;;;;;;;18.95;63.29;95222.91;5065789;28;20446;-71
2021/06/08 06:19:06;;;;;;;33.13;29.40;;;;;;;19.19;63.17;95225.31;5063894;28;20481;-74
2021/06/08 06:21:33;;;;;;;34.70;28.40;;;;;;;19.20;64.12;95227.66;5051780;28;20762;-73
2021/06/08 06:24:03;;;;;;;30.00;26.80;;;;;;;19.14;63.22;95217.47;5057105;28;20441;-75
2021/06/08 06:26:32;;;;;;;35.40;28.63;;;;;;;19.28;63.12;95220.84;5072092;28;20449;-68
2021/06/08 06:29:00;;;;;;;36.07;30.67;;;;;;;19.48;64.18;95224.91;5071557;28;20863;-75
2021/06/08 06:31:27;;;;;;;37.60;30.67;;;;;;;19.33;63.93;95209.31;5071742;28;20465;-75
2021/06/08 06:33:56;;;;;;;35.70;29.90;;;;;;;19.37;63.47;95213.75;5067556;28;20569;-71
2021/06/08 06:36:25;;;;;;;36.60;29.60;;;;;;;19.04;63.61;95212.34;5052012;28;20824;-75
2021/06/08 06:38:55;;;;;;;38.43;29.67;;;;;;;19.67;62.60;95201.59;5070985;28;20453;-69
2021/06/08 06:41:22;;;;;;;44.17;31.27;;;;;;;19.62;63.68;95212.31;5071747;28;21343;-74
2021/06/08 06:43:53;;;;;;;37.33;31.27;;;;;;;19.95;63.78;95210.94;5067101;28;20454;-72
2021/06/08 06:46:21;;;;;;;38.73;30.67;;;;;;;19.89;63.01;95206.88;5062696;28;20453;-70
2021/06/08 06:48:55;;;;;;;40.40;31.20;;;;;;;19.54;63.44;95199.78;5070202;28;21042;-69
2021/06/08 06:51:24;;;;;;;44.30;31.83;;;;;;;19.76;64.04;95205.06;5071623;28;20454;-69
2021/06/08 06:53:55;;;;;;;36.00;31.43;;;;;;;20.00;64.42;95200.16;5071828;28;20474;-71
2021/06/08 06:56:23;;;;;;;33.13;29.40;;;;;;;20.05;62.29;95200.06;5072809;28;21187;-72
2021/06/08 06:58:50;;;;;;;37.40;31.50;;;;;;;20.30;62.97;95191.41;5073458;28;20438;-69
2021/06/08 07:01:24;;;;;;;39.37;30.37;;;;;;;20.49;62.24;95193.81;5072032;28;20442;-70
2021/06/08 07:03:56;;;;;;;36.03;30.47;;;;;;;20.74;60.39;95190.41;5071021;28;20232;-70
2021/06/08 07:06:24;;;;;;;38.63;29.40;;;;;;;20.52;59.26;95177.22;5069936;28;20626;-69
2021/06/08 07:08:54;;;;;;;34.60;29.90;;;;;;;20.60;60.13;95185.19;5058269;28;20218;-72
2021/06/08 07:11:22;;;;;;;36.17;30.27;;;;;;;20.71;59.38;95178.47;5057830;28;20209;-70
2021/06/08 07:13:50;;;;;;;36.47;28.03;;;;;;;20.88;59.72;95175.06;5056920;28;20637;-70
2021/06/08 07:16:20;;;;;;;34.60;27.70;;;;;;;20.97;59.94;95178.50;5071730;28;20200;-71
2021/06/08 07:18:48;;;;;;;37.77;31.53;;;;;;;20.66;61.60;95172.53;5052588;28;20250;-71
2021/06/08 07:21:16;;;;;;;35.83;30.90;;;;;;;20.73;61.02;95180.88;5061901;28;20324;-69
2021/06/08 07:23:47;;;;;;;37.80;30.90;;;;;;;20.77;60.93;95174.59;5065825;28;20454;-69
2021/06/08 07:26:17;;;;;;;35.83;31.93;;;;;;;20.65;61.63;95177.09;5060632;28;20219;-71
2021/06/08 07:28:46;;;;;;;33.07;28.23;;;;;;;20.91;60.96;95169.88;5056315;28;20195;-70
2021/06/08 07:31:22;;;;;;;28.13;24.90;;;;;;;21.04;59.79;95168.97;5060847;28;20243;-74
2021/06/08 07:34:03;;;;;;;31.10;26.07;;;;;;;20.94;60.01;95169.28;5049424;28;20196;-68
2021/06/08 07:36:44;;;;;;;34.20;27.03;;;;;;;21.17;60.19;95169.16;5050204;28;20442;-69
2021/06/08 07:39:21;;;;;;;30.43;27.17;;;;;;;21.18;60.83;95174.91;5048684;28;20196;-73
2021/06/08 07:42:05;;;;;;;29.60;26.63;;;;;;;21.22;59.50;95171.66;5065887;28;20313;-71
2021/06/08 07:44:54;;;;;;;32.87;27.17;;;;;;;21.33;59.81;95168.31;5060348;28;20204;-73
2021/06/08 07:47:24;;;;;;;31.67;26.87;;;;;;;21.22;60.26;95166.31;5061191;28;20714;-69
2021/06/08 07:49:53;;;;;;;37.00;30.03;;;;;;;21.49;58.52;95174.75;5061891;28;20199;-70
2021/06/08 07:52:23;;;;;;;36.10;31.90;;;;;;;21.57;57.42;95163.28;5049982;28;20331;-68
2021/06/08 07:54:51;;;;;;;33.80;28.13;;;;;;;21.56;59.31;95166.25;5061007;28;20215;-71
2021/06/08 07:57:20;;;;;;;32.23;25.97;;;;;;;21.64;59.70;95170.78;5069083;28;20207;-72
2021/06/08 07:59:48;;;;;;;35.10;25.27;;;;;;;21.66;59.58;95168.59;5068728;28;20188;-69
2021/06/08 08:02:23;;;;;;;27.53;23.03;;;;;;;22.00;58.74;95168.50;5055579;28;20200;-70
2021/06/08 08:04:51;;;;;;;24.17;21.63;;;;;;;21.69;58.87;95170.63;5066960;28;20191;-69
2021/06/08 08:07:27;;;;;;;23.70;20.63;;;;;;;21.92;57.70;95174.66;5058440;28;20191;-73
2021/06/08 08:09:55;;;;;;;21.97;18.93;;;;;;;22.11;57.89;95159.03;5055132;28;20257;-67
2021/06/08 08:12:23;;;;;;;29.77;20.70;;;;;;;21.96;58.40;95162.25;5062117;28;20589;-72
2021/06/08 08:14:53;;;;;;;23.47;18.50;;;;;;;22.18;54.97;95170.00;5063362;28;20227;-70
2021/06/08 08:17:24;;;;;;;21.70;16.30;;;;;;;22.12;57.04;95165.94;5049897;28;20188;-71
2021/06/08 08:19:54;;;;;;;25.40;17.70;;;;;;;22.22;55.36;95162.91;5049757;28;20610;-69
2021/06/08 08:22:21;;;;;;;18.73;16.80;;;;;;;22.16;55.36;95158.84;5049851;28;20195;-70
2021/06/08 08:24:48;;;;;;;21.20;16.50;;;;;;;22.48;54.34;95152.88;5061997;28;20685;-69
2021/06/08 08:27:15;;;;;;;24.53;20.30;;;;;;;22.62;55.23;95160.69;5065223;28;20199;-70
2021/06/08 08:29:45;;;;;;;26.50;19.27;;;;;;;22.82;55.76;95155.34;5060797;28;20192;-70
2021/06/08 08:32:14;;;;;;;18.53;16.40;;;;;;;22.86;54.33;95153.56;5051716;28;20189;-67
2021/06/08 08:34:42;;;;;;;22.47;16.33;;;;;;;23.07;53.42;95159.72;5049712;28;20224;-70
2021/06/08 08:37:10;;;;;;;17.47;15.00;;;;;;;22.97;54.59;95152.06;5055478;28;20195;-73
2021/06/08 08:39:37;;;;;;;20.07;15.23;;;;;;;23.01;55.63;95150.31;5069290;28;20249;-74
2021/06/08 08:42:07;;;;;;;15.97;11.97;;;;;;;22.69;50.63;95155.59;5053512;28;20207;-71
2021/06/08 08:44:34;;;;;;;15.37;11.80;;;;;;;22.87;50.78;95141.78;5054319;28;20200;-71
2021/06/08 08:47:01;;;;;;;17.00;12.47;;;;;;;23.12;53.47;95146.13;5070280;28;20199;-68
2021/06/08 08:49:28;;;;;;;14.03;10.63;;;;;;;23.55;51.09;95144.97;5061027;28;20566;-71
2021/06/08 08:51:56;;;;;;;26.07;12.37;;;;;;;23.63;50.85;95138.78;5050352;28;20673;-70
2021/06/08 08:54:24;;;;;;;18.53;10.83;;;;;;;23.57;50.04;95134.75;5068252;28;20675;-71
2021/06/08 08:56:51;;;;;;;13.47;10.53;;;;;;;23.45;49.08;95132.03;5070020;28;20222;-73
2021/06/08 08:59:19;;;;;;;16.00;11.07;;;;;;;23.56;49.11;95123.25;5069093;28;20210;-72
2021/06/08 09:01:49;;;;;;;14.93;10.33;;;;;;;23.77;47.79;95125.88;5069358;28;20208;-70
2021/06/08 09:04:19;;;;;;;10.57;9.43;;;;;;;23.90;48.32;95111.38;5069806;28;20662;-68
2021/06/08 09:06:46;;;;;;;16.20;11.67;;;;;;;23.75;47.53;95125.41;5052338;28;20224;-66
2021/06/08 09:09:13;;;;;;;15.43;11.33;;;;;;;23.54;48.09;95119.38;5050329;28;20201;-70
2021/06/08 09:11:41;;;;;;;13.37;11.97;;;;;;;23.31;48.39;95116.28;5067190;28;20200;-69
2021/06/08 09:14:11;;;;;;;15.30;11.27;;;;;;;23.47;48.54;95101.16;5053509;28;20201;-68
2021/06/08 09:16:39;;;;;;;17.00;10.60;;;;;;;23.72;47.38;95115.38;5054215;28;20196;-68
2021/06/08 09:19:10;;;;;;;12.47;8.73;;;;;;;24.29;47.12;95110.72;5065312;28;20562;-70
2021/06/08 09:21:39;;;;;;;9.33;7.03;;;;;;;24.41;44.84;95099.22;5066951;28;20227;-69
2021/06/08 09:24:23;;;;;;;8.03;7.23;;;;;;;24.21;42.92;95106.28;5068539;28;20196;-70
2021/06/08 09:27:05;;;;;;;10.17;7.13;;;;;;;24.44;43.90;95101.22;5054109;28;20207;-72
2021/06/08 09:29:41;;;;;;;9.93;7.07;;;;;;;24.31;46.98;95092.44;5063520;28;20196;-71
2021/06/08 09:32:27;;;;;;;7.60;6.57;;;;;;;24.72;45.55;95094.84;5055339;28;20231;-71
2021/06/08 09:34:55;;;;;;;6.70;5.47;;;;;;;24.79;45.22;95087.00;5060869;28;20334;-73
2021/06/08 09:37:43;;;;;;;8.00;6.67;;;;;;;25.12;44.39;95080.63;5059190;28;20200;-68
2021/06/08 09:40:22;;;;;;;9.33;5.17;;;;;;;25.24;42.53;95077.88;5058357;28;20196;-71
2021/06/08 09:42:50;;;;;;;6.13;5.53;;;;;;;25.28;42.50;95068.81;5062613;28;20205;-68
2021/06/08 09:45:22;;;;;;;8.87;5.93;;;;;;;25.42;42.55;95063.06;5068372;28;20203;-70
2021/06/08 09:48:00;;;;;;;8.97;5.60;;;;;;;25.45;40.79;95065.84;5072839;28;20261;-70
2021/06/08 09:50:45;;;;;;;6.77;6.10;;;;;;;25.33;40.94;95065.13;5071891;28;20200;-71
2021/06/08 09:53:30;;;;;;;7.80;5.67;;;;;;;25.26;42.46;95065.69;5071927;28;20537;-68
2021/06/08 09:56:04;;;;;;;8.17;6.20;;;;;;;25.41;43.43;95056.13;5058177;28;20700;-67
2021/06/08 09:58:32;;;;;;;6.97;6.27;;;;;;;25.36;43.67;95059.06;5058216;28;20195;-67
2021/06/08 10:01:20;;;;;;;8.23;7.10;;;;;;;25.35;42.55;95046.75;5065650;28;20209;-67
2021/06/08 10:03:53;;;;;;;7.13;6.53;;;;;;;25.59;41.71;95052.00;5052098;28;20220;-68
2021/06/08 10:06:23;;;;;;;12.20;6.90;;;;;;;25.70;42.23;95047.66;5071843;28;20199;-69
2021/06/08 10:08:54;;;;;;;9.73;6.97;;;;;;;25.80;41.45;95039.09;5071332;28;20666;-73
2021/06/08 10:11:24;;;;;;;7.03;6.30;;;;;;;25.96;41.26;95046.03;5058322;28;20196;-71
2021/06/08 10:13:58;;;;;;;8.40;7.10;;;;;;;25.94;41.60;95031.38;5065433;28;20743;-70
2021/06/08 10:16:30;;;;;;;8.00;7.30;;;;;;;26.21;41.82;95038.53;5065719;28;20623;-67
2021/06/08 10:18:59;;;;;;;8.57;7.17;;;;;;;26.17;40.96;95035.00;5051046;28;20697;-70
2021/06/08 10:21:34;;;;;;;7.97;7.03;;;;;;;26.38;40.90;95043.53;5051225;28;20189;-70
2021/06/08 10:24:12;;;;;;;10.00;7.00;;;;;;;26.54;41.29;95044.25;5051640;28;20710;-68
2021/06/08 10:26:47;;;;;;;7.67;6.87;;;;;;;26.63;41.25;95036.75;5066330;28;20191;-70
2021/06/08 10:29:14;;;;;;;6.83;6.10;;;;;;;26.91;39.05;95032.00;5071202;28;20191;-66
2021/06/08 10:31:45;;;;;;;7.77;6.97;;;;;;;26.68;39.76;95025.75;5057526;28;20350;-71
2021/06/08 10:34:32;;;;;;;7.20;6.50;;;;;;;27.13;39.11;95041.25;5059694;28;20192;-69
2021/06/08 10:36:59;;;;;;;6.90;6.20;;;;;;;26.83;38.47;95029.50;5071139;28;20195;-73
2021/06/08 10:39:29;;;;;;;8.33;6.33;;;;;;;27.01;37.06;95023.34;5071414;28;20582;-70
2021/06/08 10:41:58;;;;;;;8.37;6.50;;;;;;;27.22;37.42;95032.94;5071868;28;20584;-73
2021/06/08 10:44:28;;;;;;;7.70;7.00;;;;;;;27.21;37.22;95021.41;5070932;28;20234;-72
2021/06/08 10:47:07;;;;;;;7.53;6.63;;;;;;;27.38;35.51;95010.22;5071158;28;20211;-68
2021/06/08 10:49:35;;;;;;;7.63;6.30;;;;;;;27.77;35.92;95005.47;5061240;28;20212;-71
2021/06/08 10:52:08;;;;;;;6.63;6.13;;;;;;;27.72;33.81;95005.75;5050600;28;20200;-69
2021/06/08 10:54:43;;;;;;;8.50;6.10;;;;;;;26.95;35.21;95005.94;5059472;28;20204;-72
2021/06/08 10:57:17;;;;;;;7.80;6.53;;;;;;;27.17;36.11;95009.03;5071122;28;20687;-71
2021/06/08 10:59:48;;;;;;;9.20;6.83;;;;;;;27.16;37.23;95004.75;5060972;28;20246;-69
2021/06/08 11:02:40;;;;;;;8.67;6.20;;;;;;;26.92;37.25;95009.34;5052821;28;20277;-71
2021/06/08 11:05:08;;;;;;;7.57;6.60;;;;;;;26.61;37.20;95009.47;5066511;28;20643;-68
2021/06/08 11:07:47;;;;;;;7.57;6.40;;;;;;;26.20;37.98;95023.56;5061345;28;20682;-71
2021/06/08 11:10:26;;;;;;;7.87;6.57;;;;;;;26.14;38.36;95019.59;5065002;28;20199;-65
2021/06/08 11:13:08;;;;;;;6.87;5.83;;;;;;;25.63;39.02;95026.81;5063168;28;20192;-68
2021/06/08 11:15:40;;;;;;;10.57;5.50;;;;;;;25.74;41.35;95027.06;5064370;28;20226;-73
2021/06/08 11:18:28;;;;;;;10.07;5.10;;;;;;;25.87;42.11;95017.78;5050433;28;20634;-71
2021/06/08 11:20:57;;;;;;;9.53;4.87;;;;;;;25.69;40.88;95024.66;5050760;28;20593;-71
2021/06/08 11:23:44;;;;;;;8.53;4.70;;;;;;;25.05;41.75;95031.03;5050794;28;20200;-69
2021/06/08 11:26:16;;;;;;;14.70;5.07;;;;;;;24.79;42.68;95003.94;5070401;28;20207;-72
2021/06/08 11:28:45;;;;;;;7.20;5.03;;;;;;;25.27;42.31;95028.94;5055645;28;20208;-71
2021/06/08 11:31:18;;;;;;;6.83;4.90;;;;;;;24.81;43.20;95020.44;5070277;28;20590;-71
2021/06/08 11:33:47;;;;;;;6.40;4.63;;;;;;;24.72;43.87;95035.09;5069483;28;20261;-70
2021/06/08 11:36:23;;;;;;;7.23;4.73;;;;;;;24.24;43.95;95030.63;5061697;28;20608;-70